sensor_id;sensor_type;location;lat;lon;timestamp;P1;durP1;ratioP1;P2;durP2;ratioP2
48751;SDS011;34544;48.836;9.174;2022-07-09T00:00:02;5.93;;;3.97;;
48751;SDS011;34544;48.836;9.174;2022-07-09T00:02:34;4.65;;;3.05;;
48751;SDS011;34544;48.836;9.174;2022-07-09T00:05:00;7.25;;;4.20;;
48751;SDS011;34544;48.836;9.174;2022-07-09T00:07:26;7.57;;;3.08;;
48751;SDS011;34544;48.836;9.174;2022-07-09T00:09:52;9.55;;;4.05;;
48751;SDS011;34544;48.836;9.174;2022-07-09T00:12:18;5.60;;;3.58;;
48751;SDS011;34544;48.836;9.174;2022-07-09T00:14:44;8.00;;;4.20;;
48751;SDS011;34544;48.836;9.174;2022-07-09T00:17:09;6.10;;;3.95;;
48751;SDS011;34544;48.836;9.174;2022-07-09T00:19:35;9.13;;;4.53;;
48751;SDS011;34544;48.836;9.174;2022-07-09T00:22:01;7.20;;;4.13;;
48751;SDS011;34544;48.836;9.174;2022-07-09T00:24:27;7.82;;;4.28;;
48751;SDS011;34544;48.836;9.174;2022-07-09T00:26:53;8.23;;;4.30;;
48751;SDS011;34544;48.836;9.174;2022-07-09T00:29:19;12.38;;;4.65;;
48751;SDS011;34544;48.836;9.174;2022-07-09T00:31:45;18.02;;;4.47;;
48751;SDS011;34544;48.836;9.174;2022-07-09T00:34:11;5.85;;;4.32;;
48751;SDS011;34544;48.836;9.174;2022-07-09T00:36:37;6.28;;;3.90;;
48751;SDS011;34544;48.836;9.174;2022-07-09T00:39:03;6.35;;;4.70;;
48751;SDS011;34544;48.836;9.174;2022-07-09T00:41:29;12.32;;;4.72;;
48751;SDS011;34544;48.836;9.174;2022-07-09T00:43:54;10.23;;;5.40;;
48751;SDS011;34544;48.836;9.174;2022-07-09T00:46:20;9.68;;;5.95;;
48751;SDS011;34544;48.836;9.174;2022-07-09T00:48:46;10.55;;;5.85;;
48751;SDS011;34544;48.836;9.174;2022-07-09T00:51:12;11.07;;;5.38;;
48751;SDS011;34544;48.836;9.174;2022-07-09T00:53:39;16.70;;;6.25;;
48751;SDS011;34544;48.836;9.174;2022-07-09T00:56:06;8.80;;;4.72;;
48751;SDS011;34544;48.836;9.174;2022-07-09T00:58:33;12.88;;;5.32;;
48751;SDS011;34544;48.836;9.174;2022-07-09T01:01:00;11.20;;;4.93;;
48751;SDS011;34544;48.836;9.174;2022-07-09T01:03:26;8.13;;;4.57;;
48751;SDS011;34544;48.836;9.174;2022-07-09T01:05:52;11.93;;;5.07;;
48751;SDS011;34544;48.836;9.174;2022-07-09T01:08:18;9.30;;;4.93;;
48751;SDS011;34544;48.836;9.174;2022-07-09T01:10:44;8.90;;;4.50;;
48751;SDS011;34544;48.836;9.174;2022-07-09T01:13:11;11.85;;;5.10;;
48751;SDS011;34544;48.836;9.174;2022-07-09T01:15:37;6.07;;;4.38;;
48751;SDS011;34544;48.836;9.174;2022-07-09T01:18:03;7.65;;;5.57;;
48751;SDS011;34544;48.836;9.174;2022-07-09T01:20:28;5.97;;;3.95;;
48751;SDS011;34544;48.836;9.174;2022-07-09T01:22:55;9.43;;;3.97;;
48751;SDS011;34544;48.836;9.174;2022-07-09T01:25:24;10.85;;;4.78;;
48751;SDS011;34544;48.836;9.174;2022-07-09T01:27:56;10.05;;;4.30;;
48751;SDS011;34544;48.836;9.174;2022-07-09T01:30:23;6.72;;;4.75;;
48751;SDS011;34544;48.836;9.174;2022-07-09T01:32:51;9.25;;;3.53;;
48751;SDS011;34544;48.836;9.174;2022-07-09T01:35:18;7.28;;;4.43;;
48751;SDS011;34544;48.836;9.174;2022-07-09T01:37:44;7.70;;;3.30;;
48751;SDS011;34544;48.836;9.174;2022-07-09T01:40:09;3.78;;;3.20;;
48751;SDS011;34544;48.836;9.174;2022-07-09T01:42:36;7.63;;;3.75;;
48751;SDS011;34544;48.836;9.174;2022-07-09T01:45:02;6.70;;;4.25;;
48751;SDS011;34544;48.836;9.174;2022-07-09T01:47:27;6.78;;;3.80;;
48751;SDS011;34544;48.836;9.174;2022-07-09T01:49:53;14.15;;;4.95;;
48751;SDS011;34544;48.836;9.174;2022-07-09T01:52:19;6.40;;;3.80;;
48751;SDS011;34544;48.836;9.174;2022-07-09T01:54:44;4.97;;;3.72;;
48751;SDS011;34544;48.836;9.174;2022-07-09T01:57:10;7.45;;;3.83;;
48751;SDS011;34544;48.836;9.174;2022-07-09T01:59:36;5.82;;;3.60;;
48751;SDS011;34544;48.836;9.174;2022-07-09T02:02:01;7.85;;;4.03;;
48751;SDS011;34544;48.836;9.174;2022-07-09T02:04:27;8.93;;;4.05;;
48751;SDS011;34544;48.836;9.174;2022-07-09T02:06:53;5.13;;;3.60;;
48751;SDS011;34544;48.836;9.174;2022-07-09T02:09:18;5.80;;;3.58;;
48751;SDS011;34544;48.836;9.174;2022-07-09T02:11:44;9.60;;;3.90;;
48751;SDS011;34544;48.836;9.174;2022-07-09T02:14:10;9.05;;;4.05;;
48751;SDS011;34544;48.836;9.174;2022-07-09T02:16:36;4.22;;;3.17;;
48751;SDS011;34544;48.836;9.174;2022-07-09T02:19:01;7.55;;;3.72;;
48751;SDS011;34544;48.836;9.174;2022-07-09T02:21:27;6.30;;;3.97;;
48751;SDS011;34544;48.836;9.174;2022-07-09T02:23:52;6.15;;;4.10;;
48751;SDS011;34544;48.836;9.174;2022-07-09T02:26:23;6.45;;;3.55;;
48751;SDS011;34544;48.836;9.174;2022-07-09T02:31:42;3.95;;;2.88;;
48751;SDS011;34544;48.836;9.174;2022-07-09T02:34:07;6.18;;;3.85;;
48751;SDS011;34544;48.836;9.174;2022-07-09T02:36:33;9.63;;;3.92;;
48751;SDS011;34544;48.836;9.174;2022-07-09T02:38:59;4.57;;;3.50;;
48751;SDS011;34544;48.836;9.174;2022-07-09T02:41:24;5.70;;;4.18;;
48751;SDS011;34544;48.836;9.174;2022-07-09T02:43:50;9.43;;;4.28;;
48751;SDS011;34544;48.836;9.174;2022-07-09T02:46:16;11.68;;;3.65;;
48751;SDS011;34544;48.836;9.174;2022-07-09T02:48:41;7.05;;;3.58;;
48751;SDS011;34544;48.836;9.174;2022-07-09T02:51:07;6.38;;;4.30;;
48751;SDS011;34544;48.836;9.174;2022-07-09T02:53:33;5.40;;;3.58;;
48751;SDS011;34544;48.836;9.174;2022-07-09T02:55:59;9.02;;;4.43;;
48751;SDS011;34544;48.836;9.174;2022-07-09T02:58:24;8.05;;;3.58;;
48751;SDS011;34544;48.836;9.174;2022-07-09T03:00:50;7.85;;;3.78;;
48751;SDS011;34544;48.836;9.174;2022-07-09T03:03:15;6.05;;;3.80;;
48751;SDS011;34544;48.836;9.174;2022-07-09T03:05:41;5.47;;;3.67;;
48751;SDS011;34544;48.836;9.174;2022-07-09T03:08:07;5.40;;;3.50;;
48751;SDS011;34544;48.836;9.174;2022-07-09T03:10:33;7.00;;;3.65;;
48751;SDS011;34544;48.836;9.174;2022-07-09T03:12:59;5.40;;;4.00;;
48751;SDS011;34544;48.836;9.174;2022-07-09T03:15:25;7.25;;;3.70;;
48751;SDS011;34544;48.836;9.174;2022-07-09T03:17:51;6.45;;;3.75;;
48751;SDS011;34544;48.836;9.174;2022-07-09T03:20:17;4.65;;;3.17;;
48751;SDS011;34544;48.836;9.174;2022-07-09T03:22:43;8.95;;;4.10;;
48751;SDS011;34544;48.836;9.174;2022-07-09T03:25:08;8.63;;;4.13;;
48751;SDS011;34544;48.836;9.174;2022-07-09T03:27:34;5.68;;;3.88;;
48751;SDS011;34544;48.836;9.174;2022-07-09T03:30:00;7.43;;;4.20;;
48751;SDS011;34544;48.836;9.174;2022-07-09T03:32:27;8.50;;;4.70;;
48751;SDS011;34544;48.836;9.174;2022-07-09T03:34:53;5.93;;;3.60;;
48751;SDS011;34544;48.836;9.174;2022-07-09T03:37:19;6.78;;;3.72;;
48751;SDS011;34544;48.836;9.174;2022-07-09T03:39:45;7.05;;;4.10;;
48751;SDS011;34544;48.836;9.174;2022-07-09T03:42:11;4.70;;;3.65;;
48751;SDS011;34544;48.836;9.174;2022-07-09T03:44:37;8.15;;;3.95;;
48751;SDS011;34544;48.836;9.174;2022-07-09T03:47:04;7.45;;;4.10;;
48751;SDS011;34544;48.836;9.174;2022-07-09T03:49:30;5.55;;;3.28;;
48751;SDS011;34544;48.836;9.174;2022-07-09T03:51:56;8.32;;;4.28;;
48751;SDS011;34544;48.836;9.174;2022-07-09T03:54:22;11.40;;;3.95;;
48751;SDS011;34544;48.836;9.174;2022-07-09T03:56:48;14.30;;;4.70;;
48751;SDS011;34544;48.836;9.174;2022-07-09T03:59:15;6.05;;;4.72;;
48751;SDS011;34544;48.836;9.174;2022-07-09T04:01:41;6.95;;;3.92;;
48751;SDS011;34544;48.836;9.174;2022-07-09T04:04:06;6.47;;;4.20;;
48751;SDS011;34544;48.836;9.174;2022-07-09T04:06:32;8.57;;;4.65;;
48751;SDS011;34544;48.836;9.174;2022-07-09T04:08:58;6.88;;;4.50;;
48751;SDS011;34544;48.836;9.174;2022-07-09T04:11:29;6.18;;;3.85;;
48751;SDS011;34544;48.836;9.174;2022-07-09T04:13:55;6.35;;;3.83;;
48751;SDS011;34544;48.836;9.174;2022-07-09T04:16:21;5.97;;;4.03;;
48751;SDS011;34544;48.836;9.174;2022-07-09T04:18:47;5.70;;;3.95;;
48751;SDS011;34544;48.836;9.174;2022-07-09T04:21:12;5.60;;;3.80;;
48751;SDS011;34544;48.836;9.174;2022-07-09T04:23:38;6.60;;;3.88;;
48751;SDS011;34544;48.836;9.174;2022-07-09T04:26:04;5.55;;;4.60;;
48751;SDS011;34544;48.836;9.174;2022-07-09T04:28:29;4.93;;;4.18;;
48751;SDS011;34544;48.836;9.174;2022-07-09T04:30:55;7.68;;;4.13;;
48751;SDS011;34544;48.836;9.174;2022-07-09T04:33:47;7.65;;;4.20;;
48751;SDS011;34544;48.836;9.174;2022-07-09T04:36:13;11.07;;;4.18;;
48751;SDS011;34544;48.836;9.174;2022-07-09T04:38:39;8.05;;;4.20;;
48751;SDS011;34544;48.836;9.174;2022-07-09T04:41:04;4.82;;;4.03;;
48751;SDS011;34544;48.836;9.174;2022-07-09T04:43:31;7.68;;;4.20;;
48751;SDS011;34544;48.836;9.174;2022-07-09T04:45:57;11.45;;;4.32;;
48751;SDS011;34544;48.836;9.174;2022-07-09T04:48:24;6.82;;;5.13;;
48751;SDS011;34544;48.836;9.174;2022-07-09T04:50:49;6.20;;;4.43;;
48751;SDS011;34544;48.836;9.174;2022-07-09T04:53:15;8.55;;;4.88;;
48751;SDS011;34544;48.836;9.174;2022-07-09T04:55:41;7.25;;;4.78;;
48751;SDS011;34544;48.836;9.174;2022-07-09T04:58:07;7.25;;;3.72;;
48751;SDS011;34544;48.836;9.174;2022-07-09T05:00:34;7.75;;;4.63;;
48751;SDS011;34544;48.836;9.174;2022-07-09T05:02:59;13.50;;;5.03;;
48751;SDS011;34544;48.836;9.174;2022-07-09T05:05:25;9.15;;;4.72;;
48751;SDS011;34544;48.836;9.174;2022-07-09T05:07:51;7.57;;;4.78;;
48751;SDS011;34544;48.836;9.174;2022-07-09T05:10:17;5.72;;;4.40;;
48751;SDS011;34544;48.836;9.174;2022-07-09T05:12:43;12.07;;;4.00;;
48751;SDS011;34544;48.836;9.174;2022-07-09T05:15:09;7.53;;;3.67;;
48751;SDS011;34544;48.836;9.174;2022-07-09T05:17:36;6.18;;;3.38;;
48751;SDS011;34544;48.836;9.174;2022-07-09T05:20:03;4.32;;;3.88;;
48751;SDS011;34544;48.836;9.174;2022-07-09T05:22:32;5.15;;;3.72;;
48751;SDS011;34544;48.836;9.174;2022-07-09T05:24:59;9.82;;;4.32;;
48751;SDS011;34544;48.836;9.174;2022-07-09T05:27:26;7.07;;;4.10;;
48751;SDS011;34544;48.836;9.174;2022-07-09T05:29:53;10.50;;;4.45;;
48751;SDS011;34544;48.836;9.174;2022-07-09T05:32:19;7.57;;;3.78;;
48751;SDS011;34544;48.836;9.174;2022-07-09T05:34:45;7.45;;;3.28;;
48751;SDS011;34544;48.836;9.174;2022-07-09T05:37:11;7.50;;;3.28;;
48751;SDS011;34544;48.836;9.174;2022-07-09T05:39:37;6.45;;;3.42;;
48751;SDS011;34544;48.836;9.174;2022-07-09T05:42:03;4.88;;;3.67;;
48751;SDS011;34544;48.836;9.174;2022-07-09T05:44:29;4.90;;;3.78;;
48751;SDS011;34544;48.836;9.174;2022-07-09T05:46:55;6.68;;;4.03;;
48751;SDS011;34544;48.836;9.174;2022-07-09T05:49:21;7.05;;;3.65;;
48751;SDS011;34544;48.836;9.174;2022-07-09T05:51:47;8.07;;;3.42;;
48751;SDS011;34544;48.836;9.174;2022-07-09T05:54:12;4.47;;;3.05;;
48751;SDS011;34544;48.836;9.174;2022-07-09T05:56:38;8.52;;;3.92;;
48751;SDS011;34544;48.836;9.174;2022-07-09T05:59:04;8.95;;;3.40;;
48751;SDS011;34544;48.836;9.174;2022-07-09T06:01:30;4.95;;;3.10;;
48751;SDS011;34544;48.836;9.174;2022-07-09T06:03:55;6.90;;;3.50;;
48751;SDS011;34544;48.836;9.174;2022-07-09T06:06:21;7.55;;;3.53;;
48751;SDS011;34544;48.836;9.174;2022-07-09T06:08:47;4.38;;;2.40;;
48751;SDS011;34544;48.836;9.174;2022-07-09T06:11:13;6.28;;;2.80;;
48751;SDS011;34544;48.836;9.174;2022-07-09T06:13:39;4.38;;;2.75;;
48751;SDS011;34544;48.836;9.174;2022-07-09T06:16:04;7.70;;;3.00;;
48751;SDS011;34544;48.836;9.174;2022-07-09T06:18:31;3.50;;;2.65;;
48751;SDS011;34544;48.836;9.174;2022-07-09T06:20:56;6.07;;;3.38;;
48751;SDS011;34544;48.836;9.174;2022-07-09T06:23:22;6.38;;;3.30;;
48751;SDS011;34544;48.836;9.174;2022-07-09T06:25:48;7.10;;;3.10;;
48751;SDS011;34544;48.836;9.174;2022-07-09T06:28:14;6.95;;;2.63;;
48751;SDS011;34544;48.836;9.174;2022-07-09T06:30:40;5.35;;;2.80;;
48751;SDS011;34544;48.836;9.174;2022-07-09T06:33:06;4.00;;;2.83;;
48751;SDS011;34544;48.836;9.174;2022-07-09T06:35:31;3.97;;;2.35;;
48751;SDS011;34544;48.836;9.174;2022-07-09T06:37:57;6.68;;;2.90;;
48751;SDS011;34544;48.836;9.174;2022-07-09T06:40:23;5.65;;;2.38;;
48751;SDS011;34544;48.836;9.174;2022-07-09T06:42:49;6.55;;;2.25;;
48751;SDS011;34544;48.836;9.174;2022-07-09T06:45:21;6.03;;;2.30;;
48751;SDS011;34544;48.836;9.174;2022-07-09T06:47:46;7.00;;;2.60;;
48751;SDS011;34544;48.836;9.174;2022-07-09T06:50:12;10.50;;;2.60;;
48751;SDS011;34544;48.836;9.174;2022-07-09T06:52:38;7.53;;;2.75;;
48751;SDS011;34544;48.836;9.174;2022-07-09T06:55:04;3.83;;;2.45;;
48751;SDS011;34544;48.836;9.174;2022-07-09T06:57:29;6.95;;;2.42;;
48751;SDS011;34544;48.836;9.174;2022-07-09T06:59:55;4.53;;;2.75;;
48751;SDS011;34544;48.836;9.174;2022-07-09T07:02:21;4.03;;;2.20;;
48751;SDS011;34544;48.836;9.174;2022-07-09T07:04:47;8.82;;;2.60;;
48751;SDS011;34544;48.836;9.174;2022-07-09T07:07:13;18.90;;;3.17;;
48751;SDS011;34544;48.836;9.174;2022-07-09T07:09:38;4.60;;;2.03;;
48751;SDS011;34544;48.836;9.174;2022-07-09T07:12:04;2.85;;;1.77;;
48751;SDS011;34544;48.836;9.174;2022-07-09T07:14:30;5.40;;;2.15;;
48751;SDS011;34544;48.836;9.174;2022-07-09T07:16:56;5.57;;;2.08;;
48751;SDS011;34544;48.836;9.174;2022-07-09T07:19:22;4.53;;;1.85;;
48751;SDS011;34544;48.836;9.174;2022-07-09T07:21:48;8.68;;;2.40;;
48751;SDS011;34544;48.836;9.174;2022-07-09T07:24:14;4.93;;;2.35;;
48751;SDS011;34544;48.836;9.174;2022-07-09T07:26:39;6.75;;;2.30;;
48751;SDS011;34544;48.836;9.174;2022-07-09T07:29:05;4.07;;;2.33;;
48751;SDS011;34544;48.836;9.174;2022-07-09T07:31:31;2.28;;;1.88;;
48751;SDS011;34544;48.836;9.174;2022-07-09T07:33:57;4.85;;;1.67;;
48751;SDS011;34544;48.836;9.174;2022-07-09T07:36:24;3.75;;;1.63;;
48751;SDS011;34544;48.836;9.174;2022-07-09T07:38:51;4.15;;;1.63;;
48751;SDS011;34544;48.836;9.174;2022-07-09T07:41:17;5.97;;;1.73;;
48751;SDS011;34544;48.836;9.174;2022-07-09T07:43:44;3.55;;;2.00;;
48751;SDS011;34544;48.836;9.174;2022-07-09T07:46:10;5.22;;;1.88;;
48751;SDS011;34544;48.836;9.174;2022-07-09T07:48:36;2.78;;;1.73;;
48751;SDS011;34544;48.836;9.174;2022-07-09T07:51:02;3.53;;;1.48;;
48751;SDS011;34544;48.836;9.174;2022-07-09T07:53:32;3.25;;;1.60;;
48751;SDS011;34544;48.836;9.174;2022-07-09T07:56:01;6.88;;;2.22;;
48751;SDS011;34544;48.836;9.174;2022-07-09T07:58:28;8.80;;;2.42;;
48751;SDS011;34544;48.836;9.174;2022-07-09T08:00:54;4.53;;;2.08;;
48751;SDS011;34544;48.836;9.174;2022-07-09T08:03:20;4.63;;;1.92;;
48751;SDS011;34544;48.836;9.174;2022-07-09T08:05:46;3.85;;;1.98;;
48751;SDS011;34544;48.836;9.174;2022-07-09T08:08:12;4.32;;;1.90;;
48751;SDS011;34544;48.836;9.174;2022-07-09T08:10:38;4.40;;;2.20;;
48751;SDS011;34544;48.836;9.174;2022-07-09T08:13:03;2.90;;;1.42;;
48751;SDS011;34544;48.836;9.174;2022-07-09T08:15:29;5.65;;;2.05;;
48751;SDS011;34544;48.836;9.174;2022-07-09T08:17:55;8.70;;;1.70;;
48751;SDS011;34544;48.836;9.174;2022-07-09T08:20:21;6.20;;;1.75;;
48751;SDS011;34544;48.836;9.174;2022-07-09T08:22:47;5.05;;;1.67;;
48751;SDS011;34544;48.836;9.174;2022-07-09T08:25:12;2.85;;;1.55;;
48751;SDS011;34544;48.836;9.174;2022-07-09T08:27:39;2.83;;;1.15;;
48751;SDS011;34544;48.836;9.174;2022-07-09T08:30:05;5.80;;;1.55;;
48751;SDS011;34544;48.836;9.174;2022-07-09T08:32:31;5.40;;;1.60;;
48751;SDS011;34544;48.836;9.174;2022-07-09T08:34:57;2.53;;;1.50;;
48751;SDS011;34544;48.836;9.174;2022-07-09T08:37:22;3.22;;;1.85;;
48751;SDS011;34544;48.836;9.174;2022-07-09T08:39:48;3.50;;;1.70;;
48751;SDS011;34544;48.836;9.174;2022-07-09T08:42:14;7.38;;;1.80;;
48751;SDS011;34544;48.836;9.174;2022-07-09T08:44:42;6.97;;;1.98;;
48751;SDS011;34544;48.836;9.174;2022-07-09T08:47:11;7.00;;;1.52;;
48751;SDS011;34544;48.836;9.174;2022-07-09T08:49:37;3.33;;;1.35;;
48751;SDS011;34544;48.836;9.174;2022-07-09T08:52:03;4.47;;;1.20;;
48751;SDS011;34544;48.836;9.174;2022-07-09T08:54:31;5.55;;;1.40;;
48751;SDS011;34544;48.836;9.174;2022-07-09T08:56:58;4.93;;;1.73;;
48751;SDS011;34544;48.836;9.174;2022-07-09T08:59:24;3.50;;;1.80;;
48751;SDS011;34544;48.836;9.174;2022-07-09T09:01:49;3.40;;;1.55;;
48751;SDS011;34544;48.836;9.174;2022-07-09T09:04:15;1.95;;;1.10;;
48751;SDS011;34544;48.836;9.174;2022-07-09T09:06:42;3.05;;;1.70;;
48751;SDS011;34544;48.836;9.174;2022-07-09T09:09:08;4.93;;;1.08;;
48751;SDS011;34544;48.836;9.174;2022-07-09T09:11:36;2.38;;;1.35;;
48751;SDS011;34544;48.836;9.174;2022-07-09T09:14:02;2.67;;;0.95;;
48751;SDS011;34544;48.836;9.174;2022-07-09T09:16:28;4.00;;;0.88;;
48751;SDS011;34544;48.836;9.174;2022-07-09T09:18:54;4.15;;;1.45;;
48751;SDS011;34544;48.836;9.174;2022-07-09T09:21:24;3.17;;;1.27;;
48751;SDS011;34544;48.836;9.174;2022-07-09T09:23:54;2.75;;;1.33;;
48751;SDS011;34544;48.836;9.174;2022-07-09T09:26:23;3.78;;;1.13;;
48751;SDS011;34544;48.836;9.174;2022-07-09T09:28:51;5.68;;;0.98;;
48751;SDS011;34544;48.836;9.174;2022-07-09T09:31:34;3.40;;;0.98;;
48751;SDS011;34544;48.836;9.174;2022-07-09T09:36:37;2.25;;;0.80;;
48751;SDS011;34544;48.836;9.174;2022-07-09T09:39:28;2.90;;;1.15;;
48751;SDS011;34544;48.836;9.174;2022-07-09T09:41:55;6.00;;;1.58;;
48751;SDS011;34544;48.836;9.174;2022-07-09T09:44:28;7.23;;;1.53;;
48751;SDS011;34544;48.836;9.174;2022-07-09T09:47:01;3.25;;;1.33;;
48751;SDS011;34544;48.836;9.174;2022-07-09T09:49:27;3.28;;;1.17;;
48751;SDS011;34544;48.836;9.174;2022-07-09T09:52:19;2.83;;;0.98;;
48751;SDS011;34544;48.836;9.174;2022-07-09T09:54:45;3.17;;;1.08;;
48751;SDS011;34544;48.836;9.174;2022-07-09T09:57:12;2.20;;;0.95;;
48751;SDS011;34544;48.836;9.174;2022-07-09T09:59:42;1.63;;;0.52;;
48751;SDS011;34544;48.836;9.174;2022-07-09T10:02:12;4.60;;;1.13;;
48751;SDS011;34544;48.836;9.174;2022-07-09T10:04:39;2.78;;;0.82;;
48751;SDS011;34544;48.836;9.174;2022-07-09T10:07:07;2.55;;;0.90;;
48751;SDS011;34544;48.836;9.174;2022-07-09T10:09:34;2.13;;;0.95;;
48751;SDS011;34544;48.836;9.174;2022-07-09T10:11:59;1.77;;;0.70;;
48751;SDS011;34544;48.836;9.174;2022-07-09T10:14:32;3.33;;;1.00;;
48751;SDS011;34544;48.836;9.174;2022-07-09T10:17:14;2.60;;;0.63;;
48751;SDS011;34544;48.836;9.174;2022-07-09T10:22:16;4.35;;;1.27;;
48751;SDS011;34544;48.836;9.174;2022-07-09T10:24:43;2.00;;;1.15;;
48751;SDS011;34544;48.836;9.174;2022-07-09T10:27:10;3.97;;;1.10;;
48751;SDS011;34544;48.836;9.174;2022-07-09T10:29:58;1.75;;;1.13;;
48751;SDS011;34544;48.836;9.174;2022-07-09T10:32:31;1.58;;;1.13;;
48751;SDS011;34544;48.836;9.174;2022-07-09T10:34:58;1.98;;;1.02;;
48751;SDS011;34544;48.836;9.174;2022-07-09T10:37:43;1.33;;;0.80;;
48751;SDS011;34544;48.836;9.174;2022-07-09T10:40:14;1.25;;;0.63;;
48751;SDS011;34544;48.836;9.174;2022-07-09T10:42:41;1.48;;;0.90;;
48751;SDS011;34544;48.836;9.174;2022-07-09T10:47:43;2.30;;;0.73;;
48751;SDS011;34544;48.836;9.174;2022-07-09T10:50:12;2.42;;;0.60;;
48751;SDS011;34544;48.836;9.174;2022-07-09T10:52:38;2.95;;;1.23;;
48751;SDS011;34544;48.836;9.174;2022-07-09T10:55:04;1.38;;;0.60;;
48751;SDS011;34544;48.836;9.174;2022-07-09T10:57:30;1.83;;;1.00;;
48751;SDS011;34544;48.836;9.174;2022-07-09T11:03:46;1.98;;;0.80;;
48751;SDS011;34544;48.836;9.174;2022-07-09T11:06:17;2.15;;;0.90;;
48751;SDS011;34544;48.836;9.174;2022-07-09T11:08:43;3.80;;;0.88;;
48751;SDS011;34544;48.836;9.174;2022-07-09T11:11:08;2.10;;;0.93;;
48751;SDS011;34544;48.836;9.174;2022-07-09T11:13:34;2.50;;;0.65;;
48751;SDS011;34544;48.836;9.174;2022-07-09T11:16:00;2.75;;;1.00;;
48751;SDS011;34544;48.836;9.174;2022-07-09T11:18:28;1.35;;;0.90;;
48751;SDS011;34544;48.836;9.174;2022-07-09T11:20:54;1.42;;;0.73;;
48751;SDS011;34544;48.836;9.174;2022-07-09T11:23:20;1.55;;;0.57;;
48751;SDS011;34544;48.836;9.174;2022-07-09T11:25:45;1.80;;;0.70;;
48751;SDS011;34544;48.836;9.174;2022-07-09T11:28:39;1.38;;;0.70;;
48751;SDS011;34544;48.836;9.174;2022-07-09T11:31:30;2.30;;;0.88;;
48751;SDS011;34544;48.836;9.174;2022-07-09T11:33:56;3.28;;;1.00;;
48751;SDS011;34544;48.836;9.174;2022-07-09T11:36:45;0.80;;;0.57;;
48751;SDS011;34544;48.836;9.174;2022-07-09T11:41:52;0.85;;;0.57;;
48751;SDS011;34544;48.836;9.174;2022-07-09T11:44:25;2.30;;;1.00;;
48751;SDS011;34544;48.836;9.174;2022-07-09T11:47:14;3.38;;;0.80;;
48751;SDS011;34544;48.836;9.174;2022-07-09T11:49:41;1.73;;;0.60;;
48751;SDS011;34544;48.836;9.174;2022-07-09T11:52:18;4.05;;;0.60;;
48751;SDS011;34544;48.836;9.174;2022-07-09T11:54:56;1.20;;;0.75;;
48751;SDS011;34544;48.836;9.174;2022-07-09T11:57:29;0.90;;;0.60;;
48751;SDS011;34544;48.836;9.174;2022-07-09T11:59:56;2.55;;;0.98;;
48751;SDS011;34544;48.836;9.174;2022-07-09T12:02:22;1.45;;;0.80;;
48751;SDS011;34544;48.836;9.174;2022-07-09T12:04:54;2.25;;;0.80;;
48751;SDS011;34544;48.836;9.174;2022-07-09T12:07:20;2.28;;;1.02;;
48751;SDS011;34544;48.836;9.174;2022-07-09T12:09:45;0.65;;;0.50;;
48751;SDS011;34544;48.836;9.174;2022-07-09T12:12:21;2.72;;;0.55;;
48751;SDS011;34544;48.836;9.174;2022-07-09T12:14:47;1.60;;;0.68;;
48751;SDS011;34544;48.836;9.174;2022-07-09T12:17:49;2.05;;;0.80;;
48751;SDS011;34544;48.836;9.174;2022-07-09T12:22:34;1.08;;;0.55;;
48751;SDS011;34544;48.836;9.174;2022-07-09T12:24:59;2.70;;;0.68;;
48751;SDS011;34544;48.836;9.174;2022-07-09T12:27:25;1.17;;;0.50;;
48751;SDS011;34544;48.836;9.174;2022-07-09T12:29:50;1.33;;;0.60;;
48751;SDS011;34544;48.836;9.174;2022-07-09T12:32:16;3.22;;;0.70;;
48751;SDS011;34544;48.836;9.174;2022-07-09T12:34:42;2.25;;;0.80;;
48751;SDS011;34544;48.836;9.174;2022-07-09T12:37:07;1.42;;;0.80;;
48751;SDS011;34544;48.836;9.174;2022-07-09T12:39:33;1.20;;;0.57;;
48751;SDS011;34544;48.836;9.174;2022-07-09T12:41:59;2.08;;;0.88;;
48751;SDS011;34544;48.836;9.174;2022-07-09T12:44:25;1.20;;;0.52;;
48751;SDS011;34544;48.836;9.174;2022-07-09T12:46:51;1.08;;;0.68;;
48751;SDS011;34544;48.836;9.174;2022-07-09T12:49:17;3.03;;;0.50;;
48751;SDS011;34544;48.836;9.174;2022-07-09T12:51:42;1.75;;;0.77;;
48751;SDS011;34544;48.836;9.174;2022-07-09T12:54:08;2.30;;;1.13;;
48751;SDS011;34544;48.836;9.174;2022-07-09T12:56:34;2.13;;;0.80;;
48751;SDS011;34544;48.836;9.174;2022-07-09T12:59:01;0.95;;;0.47;;
48751;SDS011;34544;48.836;9.174;2022-07-09T13:01:27;2.25;;;0.57;;
48751;SDS011;34544;48.836;9.174;2022-07-09T13:03:53;0.68;;;0.55;;
48751;SDS011;34544;48.836;9.174;2022-07-09T13:06:19;1.08;;;0.47;;
48751;SDS011;34544;48.836;9.174;2022-07-09T13:08:57;1.55;;;0.73;;
48751;SDS011;34544;48.836;9.174;2022-07-09T13:11:24;1.73;;;0.45;;
48751;SDS011;34544;48.836;9.174;2022-07-09T13:13:50;1.38;;;0.68;;
48751;SDS011;34544;48.836;9.174;2022-07-09T13:16:16;1.83;;;0.60;;
48751;SDS011;34544;48.836;9.174;2022-07-09T13:18:42;1.85;;;1.25;;
48751;SDS011;34544;48.836;9.174;2022-07-09T13:21:08;1.83;;;0.50;;
48751;SDS011;34544;48.836;9.174;2022-07-09T13:23:33;1.48;;;0.70;;
48751;SDS011;34544;48.836;9.174;2022-07-09T13:25:59;1.08;;;0.50;;
48751;SDS011;34544;48.836;9.174;2022-07-09T13:28:25;2.70;;;0.85;;
48751;SDS011;34544;48.836;9.174;2022-07-09T13:30:51;1.08;;;0.63;;
48751;SDS011;34544;48.836;9.174;2022-07-09T13:33:16;0.47;;;0.40;;
48751;SDS011;34544;48.836;9.174;2022-07-09T13:35:42;2.00;;;1.00;;
48751;SDS011;34544;48.836;9.174;2022-07-09T13:38:08;1.73;;;0.73;;
48751;SDS011;34544;48.836;9.174;2022-07-09T13:40:34;0.50;;;0.50;;
48751;SDS011;34544;48.836;9.174;2022-07-09T13:42:59;1.83;;;1.13;;
48751;SDS011;34544;48.836;9.174;2022-07-09T13:45:25;1.35;;;0.60;;
48751;SDS011;34544;48.836;9.174;2022-07-09T13:47:53;0.93;;;0.60;;
48751;SDS011;34544;48.836;9.174;2022-07-09T13:50:19;0.95;;;0.85;;
48751;SDS011;34544;48.836;9.174;2022-07-09T13:52:45;0.88;;;0.70;;
48751;SDS011;34544;48.836;9.174;2022-07-09T13:55:10;1.60;;;0.70;;
48751;SDS011;34544;48.836;9.174;2022-07-09T13:57:36;1.10;;;0.65;;
48751;SDS011;34544;48.836;9.174;2022-07-09T14:00:03;0.88;;;0.80;;
48751;SDS011;34544;48.836;9.174;2022-07-09T14:02:30;0.45;;;0.40;;
48751;SDS011;34544;48.836;9.174;2022-07-09T14:04:58;1.60;;;1.17;;
48751;SDS011;34544;48.836;9.174;2022-07-09T14:07:23;0.50;;;0.50;;
48751;SDS011;34544;48.836;9.174;2022-07-09T14:09:49;3.67;;;0.80;;
48751;SDS011;34544;48.836;9.174;2022-07-09T14:12:15;1.95;;;0.57;;
48751;SDS011;34544;48.836;9.174;2022-07-09T14:14:41;3.28;;;0.95;;
48751;SDS011;34544;48.836;9.174;2022-07-09T14:17:07;1.45;;;0.60;;
48751;SDS011;34544;48.836;9.174;2022-07-09T14:19:33;1.77;;;1.00;;
48751;SDS011;34544;48.836;9.174;2022-07-09T14:21:59;0.85;;;0.70;;
48751;SDS011;34544;48.836;9.174;2022-07-09T14:24:24;0.85;;;0.70;;
48751;SDS011;34544;48.836;9.174;2022-07-09T14:26:50;2.05;;;0.77;;
48751;SDS011;34544;48.836;9.174;2022-07-09T14:29:16;1.27;;;0.80;;
48751;SDS011;34544;48.836;9.174;2022-07-09T14:32:07;1.88;;;0.70;;
48751;SDS011;34544;48.836;9.174;2022-07-09T14:34:34;6.10;;;0.80;;
48751;SDS011;34544;48.836;9.174;2022-07-09T14:37:00;2.13;;;1.23;;
48751;SDS011;34544;48.836;9.174;2022-07-09T14:39:25;1.80;;;0.95;;
48751;SDS011;34544;48.836;9.174;2022-07-09T14:41:51;1.55;;;1.27;;
48751;SDS011;34544;48.836;9.174;2022-07-09T14:44:17;4.63;;;1.13;;
48751;SDS011;34544;48.836;9.174;2022-07-09T14:46:43;3.30;;;1.17;;
48751;SDS011;34544;48.836;9.174;2022-07-09T14:49:09;1.10;;;1.00;;
48751;SDS011;34544;48.836;9.174;2022-07-09T14:51:39;2.80;;;1.00;;
48751;SDS011;34544;48.836;9.174;2022-07-09T14:54:04;3.60;;;1.10;;
48751;SDS011;34544;48.836;9.174;2022-07-09T14:56:30;2.83;;;0.90;;
48751;SDS011;34544;48.836;9.174;2022-07-09T14:58:57;2.95;;;1.02;;
48751;SDS011;34544;48.836;9.174;2022-07-09T15:01:23;1.60;;;1.00;;
48751;SDS011;34544;48.836;9.174;2022-07-09T15:03:49;1.48;;;0.60;;
48751;SDS011;34544;48.836;9.174;2022-07-09T15:06:14;0.82;;;0.70;;